sensor_id;sensor_type;location;lat;lon;timestamp;P1;durP1;ratioP1;P2;durP2;ratioP2
38399;SDS011;24180;42.676;23.320;2023-04-25T00:00:57;7.30;;;6.70;;
38399;SDS011;24180;42.676;23.320;2023-04-25T00:03:23;7.53;;;6.77;;
38399;SDS011;24180;42.676;23.320;2023-04-25T00:05:50;8.07;;;7.27;;
38399;SDS011;24180;42.676;23.320;2023-04-25T00:08:16;8.13;;;7.30;;
38399;SDS011;24180;42.676;23.320;2023-04-25T00:10:42;8.53;;;7.77;;
38399;SDS011;24180;42.676;23.320;2023-04-25T00:13:07;7.90;;;7.10;;
38399;SDS011;24180;42.676;23.320;2023-04-25T00:15:33;8.87;;;7.30;;
38399;SDS011;24180;42.676;23.320;2023-04-25T00:18:01;8.23;;;7.50;;
38399;SDS011;24180;42.676;23.320;2023-04-25T00:20:26;7.93;;;7.33;;
38399;SDS011;24180;42.676;23.320;2023-04-25T00:22:51;7.40;;;6.63;;
38399;SDS011;24180;42.676;23.320;2023-04-25T00:25:20;7.87;;;7.20;;
38399;SDS011;24180;42.676;23.320;2023-04-25T00:27:46;8.00;;;7.37;;
38399;SDS011;24180;42.676;23.320;2023-04-25T00:30:11;8.23;;;7.43;;
38399;SDS011;24180;42.676;23.320;2023-04-25T00:32:37;8.93;;;8.13;;
38399;SDS011;24180;42.676;23.320;2023-04-25T00:35:03;9.13;;;8.33;;
38399;SDS011;24180;42.676;23.320;2023-04-25T00:37:28;9.07;;;8.20;;
38399;SDS011;24180;42.676;23.320;2023-04-25T00:39:54;9.43;;;8.53;;
38399;SDS011;24180;42.676;23.320;2023-04-25T00:42:21;9.77;;;8.10;;
38399;SDS011;24180;42.676;23.320;2023-04-25T00:44:46;9.63;;;8.70;;
38399;SDS011;24180;42.676;23.320;2023-04-25T00:47:12;9.67;;;8.43;;
38399;SDS011;24180;42.676;23.320;2023-04-25T00:49:38;10.20;;;9.30;;
38399;SDS011;24180;42.676;23.320;2023-04-25T00:52:04;9.43;;;8.53;;
38399;SDS011;24180;42.676;23.320;2023-04-25T00:54:29;8.90;;;7.97;;
38399;SDS011;24180;42.676;23.320;2023-04-25T00:56:55;9.73;;;8.83;;
38399;SDS011;24180;42.676;23.320;2023-04-25T00:59:21;9.73;;;8.33;;
38399;SDS011;24180;42.676;23.320;2023-04-25T01:01:47;8.97;;;8.20;;
38399;SDS011;24180;42.676;23.320;2023-04-25T01:04:13;10.87;;;9.40;;
38399;SDS011;24180;42.676;23.320;2023-04-25T01:06:38;10.43;;;9.33;;
38399;SDS011;24180;42.676;23.320;2023-04-25T01:09:04;10.53;;;9.20;;
38399;SDS011;24180;42.676;23.320;2023-04-25T01:11:30;10.40;;;9.40;;
38399;SDS011;24180;42.676;23.320;2023-04-25T01:13:56;10.10;;;9.10;;
38399;SDS011;24180;42.676;23.320;2023-04-25T01:16:21;10.27;;;9.20;;
38399;SDS011;24180;42.676;23.320;2023-04-25T01:18:49;10.50;;;9.40;;
38399;SDS011;24180;42.676;23.320;2023-04-25T01:21:16;9.40;;;8.50;;
38399;SDS011;24180;42.676;23.320;2023-04-25T01:23:41;9.63;;;8.70;;
38399;SDS011;24180;42.676;23.320;2023-04-25T01:26:08;9.57;;;8.67;;
38399;SDS011;24180;42.676;23.320;2023-04-25T01:28:35;9.50;;;8.70;;
38399;SDS011;24180;42.676;23.320;2023-04-25T01:31:01;9.67;;;8.67;;
38399;SDS011;24180;42.676;23.320;2023-04-25T01:33:26;9.47;;;8.60;;
38399;SDS011;24180;42.676;23.320;2023-04-25T01:35:52;10.03;;;9.13;;
38399;SDS011;24180;42.676;23.320;2023-04-25T01:38:18;10.10;;;9.20;;
38399;SDS011;24180;42.676;23.320;2023-04-25T01:40:44;9.17;;;8.27;;
38399;SDS011;24180;42.676;23.320;2023-04-25T01:43:11;8.70;;;7.90;;
38399;SDS011;24180;42.676;23.320;2023-04-25T01:45:37;8.50;;;7.70;;
38399;SDS011;24180;42.676;23.320;2023-04-25T01:48:06;8.83;;;8.03;;
38399;SDS011;24180;42.676;23.320;2023-04-25T01:50:38;8.90;;;8.10;;
38399;SDS011;24180;42.676;23.320;2023-04-25T01:53:04;9.60;;;8.70;;
38399;SDS011;24180;42.676;23.320;2023-04-25T01:55:30;8.90;;;8.07;;
38399;SDS011;24180;42.676;23.320;2023-04-25T01:57:56;9.53;;;8.53;;
38399;SDS011;24180;42.676;23.320;2023-04-25T02:00:21;8.80;;;8.00;;
38399;SDS011;24180;42.676;23.320;2023-04-25T02:02:47;9.47;;;8.47;;
38399;SDS011;24180;42.676;23.320;2023-04-25T02:05:13;9.93;;;8.93;;
38399;SDS011;24180;42.676;23.320;2023-04-25T02:07:38;9.13;;;8.23;;
38399;SDS011;24180;42.676;23.320;2023-04-25T02:10:04;9.27;;;8.37;;
38399;SDS011;24180;42.676;23.320;2023-04-25T02:12:30;9.47;;;8.57;;
38399;SDS011;24180;42.676;23.320;2023-04-25T02:14:56;9.10;;;8.20;;
38399;SDS011;24180;42.676;23.320;2023-04-25T02:17:21;8.37;;;7.57;;
38399;SDS011;24180;42.676;23.320;2023-04-25T02:19:47;8.87;;;8.07;;
38399;SDS011;24180;42.676;23.320;2023-04-25T02:22:12;8.63;;;7.70;;
38399;SDS011;24180;42.676;23.320;2023-04-25T02:24:38;8.93;;;8.13;;
38399;SDS011;24180;42.676;23.320;2023-04-25T02:27:04;8.93;;;8.07;;
38399;SDS011;24180;42.676;23.320;2023-04-25T02:29:29;9.10;;;8.20;;
38399;SDS011;24180;42.676;23.320;2023-04-25T02:31:55;9.33;;;8.40;;
38399;SDS011;24180;42.676;23.320;2023-04-25T02:34:20;9.27;;;8.13;;
38399;SDS011;24180;42.676;23.320;2023-04-25T02:36:48;9.77;;;8.83;;
38399;SDS011;24180;42.676;23.320;2023-04-25T02:39:15;9.23;;;8.33;;
38399;SDS011;24180;42.676;23.320;2023-04-25T02:41:41;9.90;;;8.87;;
38399;SDS011;24180;42.676;23.320;2023-04-25T02:44:06;9.73;;;8.77;;
38399;SDS011;24180;42.676;23.320;2023-04-25T02:46:32;10.13;;;9.13;;
38399;SDS011;24180;42.676;23.320;2023-04-25T02:48:57;9.73;;;8.73;;
38399;SDS011;24180;42.676;23.320;2023-04-25T02:51:23;10.27;;;9.20;;
38399;SDS011;24180;42.676;23.320;2023-04-25T02:53:48;10.60;;;9.33;;
38399;SDS011;24180;42.676;23.320;2023-04-25T02:56:13;10.23;;;9.23;;
38399;SDS011;24180;42.676;23.320;2023-04-25T02:58:39;10.80;;;9.63;;
38399;SDS011;24180;42.676;23.320;2023-04-25T03:01:04;10.43;;;9.43;;
38399;SDS011;24180;42.676;23.320;2023-04-25T03:03:30;11.60;;;10.43;;
38399;SDS011;24180;42.676;23.320;2023-04-25T03:05:55;11.07;;;9.97;;
38399;SDS011;24180;42.676;23.320;2023-04-25T03:08:20;11.07;;;9.97;;
38399;SDS011;24180;42.676;23.320;2023-04-25T03:10:46;12.57;;;10.60;;
38399;SDS011;24180;42.676;23.320;2023-04-25T03:13:11;12.17;;;10.40;;
38399;SDS011;24180;42.676;23.320;2023-04-25T03:15:37;13.10;;;10.50;;
38399;SDS011;24180;42.676;23.320;2023-04-25T03:18:03;12.27;;;10.70;;
38399;SDS011;24180;42.676;23.320;2023-04-25T03:20:29;11.20;;;10.10;;
38399;SDS011;24180;42.676;23.320;2023-04-25T03:22:54;11.13;;;10.03;;
38399;SDS011;24180;42.676;23.320;2023-04-25T03:25:20;12.97;;;11.07;;
38399;SDS011;24180;42.676;23.320;2023-04-25T03:27:45;11.87;;;10.23;;
38399;SDS011;24180;42.676;23.320;2023-04-25T03:30:11;13.33;;;11.27;;
38399;SDS011;24180;42.676;23.320;2023-04-25T03:32:36;12.77;;;10.90;;
38399;SDS011;24180;42.676;23.320;2023-04-25T03:35:02;12.70;;;11.00;;
38399;SDS011;24180;42.676;23.320;2023-04-25T03:37:28;13.93;;;11.83;;
38399;SDS011;24180;42.676;23.320;2023-04-25T03:39:53;13.20;;;11.10;;
38399;SDS011;24180;42.676;23.320;2023-04-25T03:42:18;13.00;;;11.33;;
38399;SDS011;24180;42.676;23.320;2023-04-25T03:44:44;13.70;;;11.27;;
38399;SDS011;24180;42.676;23.320;2023-04-25T03:47:10;12.23;;;10.97;;
38399;SDS011;24180;42.676;23.320;2023-04-25T03:49:35;11.90;;;10.47;;
38399;SDS011;24180;42.676;23.320;2023-04-25T03:52:02;12.03;;;10.73;;
38399;SDS011;24180;42.676;23.320;2023-04-25T03:54:27;11.53;;;10.33;;
38399;SDS011;24180;42.676;23.320;2023-04-25T03:56:53;11.60;;;10.13;;
38399;SDS011;24180;42.676;23.320;2023-04-25T03:59:18;12.00;;;10.80;;
38399;SDS011;24180;42.676;23.320;2023-04-25T04:01:44;11.97;;;10.77;;
38399;SDS011;24180;42.676;23.320;2023-04-25T04:04:09;11.40;;;10.27;;
38399;SDS011;24180;42.676;23.320;2023-04-25T04:06:34;12.17;;;10.90;;
38399;SDS011;24180;42.676;23.320;2023-04-25T04:09:01;11.47;;;10.37;;
38399;SDS011;24180;42.676;23.320;2023-04-25T04:11:27;11.33;;;10.20;;
38399;SDS011;24180;42.676;23.320;2023-04-25T04:13:52;11.27;;;10.17;;
38399;SDS011;24180;42.676;23.320;2023-04-25T04:16:17;12.23;;;10.30;;
38399;SDS011;24180;42.676;23.320;2023-04-25T04:18:44;11.60;;;10.40;;
38399;SDS011;24180;42.676;23.320;2023-04-25T04:21:10;11.40;;;10.40;;
38399;SDS011;24180;42.676;23.320;2023-04-25T04:23:36;10.90;;;9.80;;
38399;SDS011;24180;42.676;23.320;2023-04-25T04:26:02;11.70;;;10.60;;
38399;SDS011;24180;42.676;23.320;2023-04-25T04:28:27;11.67;;;10.57;;
38399;SDS011;24180;42.676;23.320;2023-04-25T04:30:53;11.70;;;10.70;;
38399;SDS011;24180;42.676;23.320;2023-04-25T04:33:18;12.03;;;11.00;;
38399;SDS011;24180;42.676;23.320;2023-04-25T04:35:44;11.47;;;10.27;;
38399;SDS011;24180;42.676;23.320;2023-04-25T04:38:11;11.60;;;10.60;;
38399;SDS011;24180;42.676;23.320;2023-04-25T04:40:38;11.17;;;10.07;;
38399;SDS011;24180;42.676;23.320;2023-04-25T04:43:04;12.83;;;10.87;;
38399;SDS011;24180;42.676;23.320;2023-04-25T04:45:29;11.00;;;10.00;;
38399;SDS011;24180;42.676;23.320;2023-04-25T04:47:54;10.90;;;9.90;;
38399;SDS011;24180;42.676;23.320;2023-04-25T04:50:20;11.20;;;10.00;;
38399;SDS011;24180;42.676;23.320;2023-04-25T04:52:45;10.60;;;9.67;;
38399;SDS011;24180;42.676;23.320;2023-04-25T04:55:11;11.60;;;10.50;;
38399;SDS011;24180;42.676;23.320;2023-04-25T04:57:36;11.33;;;10.23;;
38399;SDS011;24180;42.676;23.320;2023-04-25T05:00:03;11.80;;;10.20;;
38399;SDS011;24180;42.676;23.320;2023-04-25T05:02:30;12.13;;;10.67;;
38399;SDS011;24180;42.676;23.320;2023-04-25T05:04:56;12.40;;;11.20;;
38399;SDS011;24180;42.676;23.320;2023-04-25T05:07:21;11.70;;;10.60;;
38399;SDS011;24180;42.676;23.320;2023-04-25T05:09:47;12.30;;;11.10;;
38399;SDS011;24180;42.676;23.320;2023-04-25T05:12:12;12.93;;;11.63;;
38399;SDS011;24180;42.676;23.320;2023-04-25T05:14:37;13.00;;;11.80;;
38399;SDS011;24180;42.676;23.320;2023-04-25T05:17:03;13.90;;;12.50;;
38399;SDS011;24180;42.676;23.320;2023-04-25T05:19:33;12.93;;;11.80;;
38399;SDS011;24180;42.676;23.320;2023-04-25T05:21:59;12.93;;;11.70;;
38399;SDS011;24180;42.676;23.320;2023-04-25T05:24:24;13.60;;;12.30;;
38399;SDS011;24180;42.676;23.320;2023-04-25T05:26:49;14.10;;;12.70;;
38399;SDS011;24180;42.676;23.320;2023-04-25T05:29:15;14.63;;;13.03;;
38399;SDS011;24180;42.676;23.320;2023-04-25T05:31:40;14.17;;;12.80;;
38399;SDS011;24180;42.676;23.320;2023-04-25T05:34:06;14.57;;;13.10;;
38399;SDS011;24180;42.676;23.320;2023-04-25T05:36:31;18.27;;;13.03;;
38399;SDS011;24180;42.676;23.320;2023-04-25T05:38:57;14.63;;;13.17;;
38399;SDS011;24180;42.676;23.320;2023-04-25T05:41:23;13.97;;;12.67;;
38399;SDS011;24180;42.676;23.320;2023-04-25T05:43:48;16.73;;;15.07;;
38399;SDS011;24180;42.676;23.320;2023-04-25T05:46:14;16.80;;;14.30;;
38399;SDS011;24180;42.676;23.320;2023-04-25T05:48:42;16.13;;;13.83;;
38399;SDS011;24180;42.676;23.320;2023-04-25T05:51:07;14.97;;;13.47;;
38399;SDS011;24180;42.676;23.320;2023-04-25T05:53:33;15.23;;;13.73;;
38399;SDS011;24180;42.676;23.320;2023-04-25T05:55:58;15.53;;;13.60;;
38399;SDS011;24180;42.676;23.320;2023-04-25T05:58:24;15.53;;;13.20;;
38399;SDS011;24180;42.676;23.320;2023-04-25T06:00:49;15.60;;;13.47;;
38399;SDS011;24180;42.676;23.320;2023-04-25T06:03:15;15.33;;;13.73;;
38399;SDS011;24180;42.676;23.320;2023-04-25T06:05:41;17.33;;;14.43;;
38399;SDS011;24180;42.676;23.320;2023-04-25T06:08:07;15.80;;;14.20;;
38399;SDS011;24180;42.676;23.320;2023-04-25T06:10:33;17.90;;;14.20;;
38399;SDS011;24180;42.676;23.320;2023-04-25T06:12:58;15.40;;;13.77;;
38399;SDS011;24180;42.676;23.320;2023-04-25T06:15:24;17.03;;;14.03;;
38399;SDS011;24180;42.676;23.320;2023-04-25T06:17:49;15.33;;;12.80;;
38399;SDS011;24180;42.676;23.320;2023-04-25T06:20:15;17.00;;;11.97;;
38399;SDS011;24180;42.676;23.320;2023-04-25T06:22:40;13.07;;;11.77;;
38399;SDS011;24180;42.676;23.320;2023-04-25T06:25:06;12.93;;;10.70;;
38399;SDS011;24180;42.676;23.320;2023-04-25T06:27:32;14.20;;;10.60;;
38399;SDS011;24180;42.676;23.320;2023-04-25T06:29:58;12.53;;;10.33;;
38399;SDS011;24180;42.676;23.320;2023-04-25T06:32:24;25.20;;;9.80;;
38399;SDS011;24180;42.676;23.320;2023-04-25T06:34:50;12.90;;;9.53;;
38399;SDS011;24180;42.676;23.320;2023-04-25T06:37:15;16.20;;;10.80;;
38399;SDS011;24180;42.676;23.320;2023-04-25T06:39:41;12.80;;;9.60;;
38399;SDS011;24180;42.676;23.320;2023-04-25T06:42:06;17.33;;;9.53;;
38399;SDS011;24180;42.676;23.320;2023-04-25T06:44:31;8.63;;;7.93;;
38399;SDS011;24180;42.676;23.320;2023-04-25T06:46:57;8.63;;;7.73;;
38399;SDS011;24180;42.676;23.320;2023-04-25T06:49:22;7.43;;;6.60;;
38399;SDS011;24180;42.676;23.320;2023-04-25T06:51:47;8.33;;;7.63;;
38399;SDS011;24180;42.676;23.320;2023-04-25T06:54:13;8.27;;;7.33;;
38399;SDS011;24180;42.676;23.320;2023-04-25T06:56:38;10.90;;;9.20;;
38399;SDS011;24180;42.676;23.320;2023-04-25T06:59:04;8.87;;;8.07;;
38399;SDS011;24180;42.676;23.320;2023-04-25T07:01:29;8.77;;;7.80;;
38399;SDS011;24180;42.676;23.320;2023-04-25T07:03:55;8.83;;;7.37;;
38399;SDS011;24180;42.676;23.320;2023-04-25T07:06:20;11.30;;;7.83;;
38399;SDS011;24180;42.676;23.320;2023-04-25T07:08:46;8.50;;;7.30;;
38399;SDS011;24180;42.676;23.320;2023-04-25T07:11:11;9.77;;;7.30;;
38399;SDS011;24180;42.676;23.320;2023-04-25T07:13:36;9.07;;;7.37;;
38399;SDS011;24180;42.676;23.320;2023-04-25T07:16:02;7.90;;;7.13;;
38399;SDS011;24180;42.676;23.320;2023-04-25T07:18:28;8.23;;;7.20;;
38399;SDS011;24180;42.676;23.320;2023-04-25T07:20:53;11.77;;;9.70;;
38399;SDS011;24180;42.676;23.320;2023-04-25T07:23:19;9.13;;;7.60;;
38399;SDS011;24180;42.676;23.320;2023-04-25T07:25:45;10.90;;;9.03;;
38399;SDS011;24180;42.676;23.320;2023-04-25T07:28:11;11.27;;;10.13;;
38399;SDS011;24180;42.676;23.320;2023-04-25T07:30:36;10.07;;;8.47;;
38399;SDS011;24180;42.676;23.320;2023-04-25T07:33:02;11.87;;;9.97;;
38399;SDS011;24180;42.676;23.320;2023-04-25T07:35:27;9.57;;;8.60;;
38399;SDS011;24180;42.676;23.320;2023-04-25T07:37:52;12.80;;;9.60;;
38399;SDS011;24180;42.676;23.320;2023-04-25T07:40:18;10.33;;;9.33;;
38399;SDS011;24180;42.676;23.320;2023-04-25T07:42:43;9.03;;;8.17;;
38399;SDS011;24180;42.676;23.320;2023-04-25T07:45:09;11.33;;;10.13;;
38399;SDS011;24180;42.676;23.320;2023-04-25T07:47:35;11.57;;;10.03;;
38399;SDS011;24180;42.676;23.320;2023-04-25T07:50:01;9.90;;;8.90;;
38399;SDS011;24180;42.676;23.320;2023-04-25T07:52:27;12.50;;;9.20;;
38399;SDS011;24180;42.676;23.320;2023-04-25T07:54:53;13.00;;;9.07;;
38399;SDS011;24180;42.676;23.320;2023-04-25T07:57:19;15.73;;;8.87;;
38399;SDS011;24180;42.676;23.320;2023-04-25T07:59:45;9.97;;;9.17;;
38399;SDS011;24180;42.676;23.320;2023-04-25T08:02:10;10.33;;;9.27;;
38399;SDS011;24180;42.676;23.320;2023-04-25T08:04:36;10.40;;;8.70;;
38399;SDS011;24180;42.676;23.320;2023-04-25T08:07:01;10.33;;;9.33;;
38399;SDS011;24180;42.676;23.320;2023-04-25T08:09:26;9.07;;;8.17;;
38399;SDS011;24180;42.676;23.320;2023-04-25T08:11:52;10.27;;;9.10;;
38399;SDS011;24180;42.676;23.320;2023-04-25T08:14:17;14.97;;;11.00;;
38399;SDS011;24180;42.676;23.320;2023-04-25T08:16:43;14.97;;;10.83;;
38399;SDS011;24180;42.676;23.320;2023-04-25T08:19:09;11.43;;;8.43;;
38399;SDS011;24180;42.676;23.320;2023-04-25T08:21:35;8.60;;;7.70;;
38399;SDS011;24180;42.676;23.320;2023-04-25T08:24:01;7.87;;;7.07;;
38399;SDS011;24180;42.676;23.320;2023-04-25T08:26:26;8.87;;;7.30;;
38399;SDS011;24180;42.676;23.320;2023-04-25T08:28:53;8.73;;;8.07;;
38399;SDS011;24180;42.676;23.320;2023-04-25T08:31:18;18.30;;;10.57;;
38399;SDS011;24180;42.676;23.320;2023-04-25T08:33:44;12.67;;;11.50;;
38399;SDS011;24180;42.676;23.320;2023-04-25T08:36:10;7.80;;;6.70;;
38399;SDS011;24180;42.676;23.320;2023-04-25T08:38:35;8.47;;;7.57;;
38399;SDS011;24180;42.676;23.320;2023-04-25T08:41:01;10.83;;;9.80;;
38399;SDS011;24180;42.676;23.320;2023-04-25T08:43:28;8.50;;;7.73;;
38399;SDS011;24180;42.676;23.320;2023-04-25T08:45:58;9.73;;;8.73;;
38399;SDS011;24180;42.676;23.320;2023-04-25T08:48:26;8.83;;;7.80;;
38399;SDS011;24180;42.676;23.320;2023-04-25T08:50:53;9.27;;;7.60;;
38399;SDS011;24180;42.676;23.320;2023-04-25T08:53:27;10.80;;;8.23;;
38399;SDS011;24180;42.676;23.320;2023-04-25T08:55:55;7.17;;;6.57;;
38399;SDS011;24180;42.676;23.320;2023-04-25T08:58:21;10.27;;;7.53;;
38399;SDS011;24180;42.676;23.320;2023-04-25T09:00:48;10.30;;;8.33;;
38399;SDS011;24180;42.676;23.320;2023-04-25T09:03:14;8.97;;;8.07;;
38399;SDS011;24180;42.676;23.320;2023-04-25T09:05:40;8.47;;;7.67;;
38399;SDS011;24180;42.676;23.320;2023-04-25T09:08:06;7.93;;;7.10;;
38399;SDS011;24180;42.676;23.320;2023-04-25T09:10:32;9.23;;;8.43;;
38399;SDS011;24180;42.676;23.320;2023-04-25T09:13:08;9.63;;;8.80;;
38399;SDS011;24180;42.676;23.320;2023-04-25T09:15:48;9.80;;;8.40;;
38399;SDS011;24180;42.676;23.320;2023-04-25T09:18:25;9.80;;;8.90;;
38399;SDS011;24180;42.676;23.320;2023-04-25T09:20:56;10.77;;;9.90;;
38399;SDS011;24180;42.676;23.320;2023-04-25T09:23:23;10.30;;;8.60;;
38399;SDS011;24180;42.676;23.320;2023-04-25T09:25:52;9.17;;;8.37;;
38399;SDS011;24180;42.676;23.320;2023-04-25T09:28:25;8.43;;;7.73;;
38399;SDS011;24180;42.676;23.320;2023-04-25T09:30:58;7.47;;;6.87;;
38399;SDS011;24180;42.676;23.320;2023-04-25T09:33:26;7.40;;;6.70;;
38399;SDS011;24180;42.676;23.320;2023-04-25T09:35:54;7.80;;;7.00;;
38399;SDS011;24180;42.676;23.320;2023-04-25T09:38:27;8.67;;;7.87;;
38399;SDS011;24180;42.676;23.320;2023-04-25T09:40:55;12.27;;;11.07;;
38399;SDS011;24180;42.676;23.320;2023-04-25T09:43:22;9.30;;;8.27;;
38399;SDS011;24180;42.676;23.320;2023-04-25T09:45:48;6.77;;;6.17;;
38399;SDS011;24180;42.676;23.320;2023-04-25T09:48:17;6.13;;;5.63;;
38399;SDS011;24180;42.676;23.320;2023-04-25T09:50:43;8.00;;;6.80;;
38399;SDS011;24180;42.676;23.320;2023-04-25T09:53:09;7.37;;;6.70;;
38399;SDS011;24180;42.676;23.320;2023-04-25T09:55:35;6.90;;;6.00;;
38399;SDS011;24180;42.676;23.320;2023-04-25T09:58:03;7.30;;;6.13;;
38399;SDS011;24180;42.676;23.320;2023-04-25T10:00:32;5.10;;;4.70;;
38399;SDS011;24180;42.676;23.320;2023-04-25T10:02:58;6.83;;;6.33;;
38399;SDS011;24180;42.676;23.320;2023-04-25T10:05:30;7.00;;;6.37;;
38399;SDS011;24180;42.676;23.320;2023-04-25T10:07:57;7.03;;;6.07;;
38399;SDS011;24180;42.676;23.320;2023-04-25T10:10:27;10.97;;;6.33;;
38399;SDS011;24180;42.676;23.320;2023-04-25T10:12:54;7.90;;;6.27;;
38399;SDS011;24180;42.676;23.320;2023-04-25T10:15:20;6.67;;;6.00;;
38399;SDS011;24180;42.676;23.320;2023-04-25T10:18:05;9.20;;;4.40;;
38399;SDS011;24180;42.676;23.320;2023-04-25T10:20:31;6.70;;;5.73;;
38399;SDS011;24180;42.676;23.320;2023-04-25T10:23:03;3.07;;;2.93;;
38399;SDS011;24180;42.676;23.320;2023-04-25T10:25:36;4.23;;;3.90;;
38399;SDS011;24180;42.676;23.320;2023-04-25T10:28:03;3.23;;;3.03;;
38399;SDS011;24180;42.676;23.320;2023-04-25T10:30:28;4.03;;;3.83;;
38399;SDS011;24180;42.676;23.320;2023-04-25T10:32:55;4.50;;;4.30;;
38399;SDS011;24180;42.676;23.320;2023-04-25T10:35:24;4.10;;;3.70;;
38399;SDS011;24180;42.676;23.320;2023-04-25T10:40:36;4.83;;;4.47;;
38399;SDS011;24180;42.676;23.320;2023-04-25T10:45:59;6.90;;;6.40;;
38399;SDS011;24180;42.676;23.320;2023-04-25T10:48:25;3.40;;;3.20;;
38399;SDS011;24180;42.676;23.320;2023-04-25T10:51:10;4.27;;;2.80;;
38399;SDS011;24180;42.676;23.320;2023-04-25T10:53:37;8.53;;;2.90;;
38399;SDS011;24180;42.676;23.320;2023-04-25T10:56:45;6.93;;;6.43;;
38399;SDS011;24180;42.676;23.320;2023-04-25T10:59:02;8.73;;;8.13;;
38399;SDS011;24180;42.676;23.320;2023-04-25T11:04:19;4.23;;;4.00;;
38399;SDS011;24180;42.676;23.320;2023-04-25T11:09:32;3.63;;;3.50;;
38399;SDS011;24180;42.676;23.320;2023-04-25T11:11:58;3.80;;;3.60;;
38399;SDS011;24180;42.676;23.320;2023-04-25T11:14:25;2.87;;;2.77;;
38399;SDS011;24180;42.676;23.320;2023-04-25T11:16:55;6.47;;;2.90;;
38399;SDS011;24180;42.676;23.320;2023-04-25T11:19:21;3.77;;;2.60;;
38399;SDS011;24180;42.676;23.320;2023-04-25T11:21:47;2.90;;;2.70;;
38399;SDS011;24180;42.676;23.320;2023-04-25T11:24:13;3.07;;;2.87;;
38399;SDS011;24180;42.676;23.320;2023-04-25T11:26:38;3.40;;;3.20;;
38399;SDS011;24180;42.676;23.320;2023-04-25T11:29:06;2.70;;;2.50;;
38399;SDS011;24180;42.676;23.320;2023-04-25T11:31:31;2.53;;;2.30;;
38399;SDS011;24180;42.676;23.320;2023-04-25T11:33:57;3.03;;;2.83;;
38399;SDS011;24180;42.676;23.320;2023-04-25T11:36:25;2.67;;;2.50;;
38399;SDS011;24180;42.676;23.320;2023-04-25T11:38:52;2.80;;;2.60;;
38399;SDS011;24180;42.676;23.320;2023-04-25T11:41:19;3.10;;;2.90;;
38399;SDS011;24180;42.676;23.320;2023-04-25T11:43:45;4.00;;;3.70;;
38399;SDS011;24180;42.676;23.320;2023-04-25T11:46:11;3.60;;;3.20;;
38399;SDS011;24180;42.676;23.320;2023-04-25T11:48:40;3.83;;;3.63;;
38399;SDS011;24180;42.676;23.320;2023-04-25T11:51:06;3.33;;;3.13;;
38399;SDS011;24180;42.676;23.320;2023-04-25T11:53:31;3.33;;;2.80;;
38399;SDS011;24180;42.676;23.320;2023-04-25T11:55:57;2.70;;;2.50;;
38399;SDS011;24180;42.676;23.320;2023-04-25T11:58:22;2.80;;;2.60;;
38399;SDS011;24180;42.676;23.320;2023-04-25T12:00:48;2.80;;;2.60;;
38399;SDS011;24180;42.676;23.320;2023-04-25T12:03:13;3.13;;;2.83;;
38399;SDS011;24180;42.676;23.320;2023-04-25T12:05:38;3.40;;;3.20;;
38399;SDS011;24180;42.676;23.320;2023-04-25T12:10:39;3.70;;;3.37;;
38399;SDS011;24180;42.676;23.320;2023-04-25T12:13:19;19.40;;;6.50;;
38399;SDS011;24180;42.676;23.320;2023-04-25T12:15:49;3.63;;;3.33;;
38399;SDS011;24180;42.676;23.320;2023-04-25T12:18:18;2.93;;;2.73;;
38399;SDS011;24180;42.676;23.320;2023-04-25T12:20:45;3.13;;;2.93;;
38399;SDS011;24180;42.676;23.320;2023-04-25T12:23:10;3.37;;;3.17;;
38399;SDS011;24180;42.676;23.320;2023-04-25T12:28:38;5.30;;;5.00;;
38399;SDS011;24180;42.676;23.320;2023-04-25T12:31:04;2.80;;;2.60;;
38399;SDS011;24180;42.676;23.320;2023-04-25T12:33:32;3.70;;;3.40;;
38399;SDS011;24180;42.676;23.320;2023-04-25T12:35:58;3.37;;;3.17;;
38399;SDS011;24180;42.676;23.320;2023-04-25T12:38:29;6.43;;;5.93;;
38399;SDS011;24180;42.676;23.320;2023-04-25T12:40:56;3.53;;;3.23;;
38399;SDS011;24180;42.676;23.320;2023-04-25T12:43:22;3.10;;;2.90;;
38399;SDS011;24180;42.676;23.320;2023-04-25T12:45:48;3.80;;;3.33;;
38399;SDS011;24180;42.676;23.320;2023-04-25T12:48:15;3.00;;;2.70;;
38399;SDS011;24180;42.676;23.320;2023-04-25T12:50:41;4.60;;;2.80;;
38399;SDS011;24180;42.676;23.320;2023-04-25T12:53:06;2.73;;;2.53;;
38399;SDS011;24180;42.676;23.320;2023-04-25T12:55:31;3.00;;;2.70;;
38399;SDS011;24180;42.676;23.320;2023-04-25T12:57:57;2.87;;;2.67;;
38399;SDS011;24180;42.676;23.320;2023-04-25T13:00:22;3.33;;;3.03;;
38399;SDS011;24180;42.676;23.320;2023-04-25T13:02:48;3.67;;;2.90;;
38399;SDS011;24180;42.676;23.320;2023-04-25T13:05:13;3.87;;;3.43;;
38399;SDS011;24180;42.676;23.320;2023-04-25T13:07:38;3.30;;;3.00;;
38399;SDS011;24180;42.676;23.320;2023-04-25T13:10:05;7.47;;;6.07;;
38399;SDS011;24180;42.676;23.320;2023-04-25T13:12:30;6.97;;;3.70;;
38399;SDS011;24180;42.676;23.320;2023-04-25T13:14:56;5.60;;;3.70;;
38399;SDS011;24180;42.676;23.320;2023-04-25T13:17:22;6.10;;;4.00;;
38399;SDS011;24180;42.676;23.320;2023-04-25T13:19:47;4.20;;;3.87;;
38399;SDS011;24180;42.676;23.320;2023-04-25T13:22:12;5.10;;;4.60;;
38399;SDS011;24180;42.676;23.320;2023-04-25T13:24:40;4.83;;;4.37;;
38399;SDS011;24180;42.676;23.320;2023-04-25T13:27:05;4.17;;;3.87;;
38399;SDS011;24180;42.676;23.320;2023-04-25T13:29:31;4.43;;;4.03;;
38399;SDS011;24180;42.676;23.320;2023-04-25T13:31:59;4.47;;;3.70;;
38399;SDS011;24180;42.676;23.320;2023-04-25T13:34:24;4.60;;;3.90;;
38399;SDS011;24180;42.676;23.320;2023-04-25T13:36:50;7.90;;;4.97;;
38399;SDS011;24180;42.676;23.320;2023-04-25T13:39:15;5.47;;;4.50;;
38399;SDS011;24180;42.676;23.320;2023-04-25T13:41:41;4.87;;;4.37;;
38399;SDS011;24180;42.676;23.320;2023-04-25T13:44:06;5.63;;;4.87;;
38399;SDS011;24180;42.676;23.320;2023-04-25T13:46:31;3.93;;;3.63;;
38399;SDS011;24180;42.676;23.320;2023-04-25T13:48:57;5.17;;;4.40;;
38399;SDS011;24180;42.676;23.320;2023-04-25T13:51:22;4.90;;;4.50;;
38399;SDS011;24180;42.676;23.320;2023-04-25T13:53:47;5.70;;;4.37;;
38399;SDS011;24180;42.676;23.320;2023-04-25T13:56:13;5.20;;;4.70;;
38399;SDS011;24180;42.676;23.320;2023-04-25T13:58:38;4.67;;;4.27;;
38399;SDS011;24180;42.676;23.320;2023-04-25T14:01:04;5.03;;;4.53;;
38399;SDS011;24180;42.676;23.320;2023-04-25T14:03:30;4.33;;;4.00;;
38399;SDS011;24180;42.676;23.320;2023-04-25T14:05:56;4.47;;;4.07;;
38399;SDS011;24180;42.676;23.320;2023-04-25T14:08:23;3.90;;;3.60;;
38399;SDS011;24180;42.676;23.320;2023-04-25T14:10:48;3.70;;;3.40;;
38399;SDS011;24180;42.676;23.320;2023-04-25T14:13:13;4.30;;;3.10;;
38399;SDS011;24180;42.676;23.320;2023-04-25T14:15:40;3.87;;;3.57;;
38399;SDS011;24180;42.676;23.320;2023-04-25T14:18:05;3.53;;;3.33;;
38399;SDS011;24180;42.676;23.320;2023-04-25T14:20:30;5.50;;;4.17;;
38399;SDS011;24180;42.676;23.320;2023-04-25T14:22:56;6.47;;;4.10;;
38399;SDS011;24180;42.676;23.320;2023-04-25T14:25:23;5.20;;;3.87;;
38399;SDS011;24180;42.676;23.320;2023-04-25T14:27:48;3.57;;;3.37;;
38399;SDS011;24180;42.676;23.320;2023-04-25T14:30:17;3.07;;;2.87;;
38399;SDS011;24180;42.676;23.320;2023-04-25T14:32:44;3.20;;;3.00;;
38399;SDS011;24180;42.676;23.320;2023-04-25T14:35:10;2.70;;;2.60;;
38399;SDS011;24180;42.676;23.320;2023-04-25T14:37:36;3.17;;;2.93;;